createdAt,value
2018-03-25T09:51:01.061Z,88.80
2018-03-25T17:23:32.422Z,90.00
2018-03-25T17:26:25.615Z,89.50
2018-03-25T17:35:51.800Z,89.90
2018-03-25T17:38:20.477Z,86.70
2018-03-25T17:40:49.168Z,86.30
2018-03-25T17:43:17.923Z,88.40
2018-03-25T17:45:47.793Z,88.80
2018-03-25T17:48:16.723Z,88.80
2018-03-25T17:50:45.381Z,88.70
2018-03-25T17:53:14.066Z,88.70
2018-03-25T17:55:42.769Z,88.70
2018-03-25T17:58:13.135Z,90.50
2018-03-25T18:00:43.034Z,90.40
2018-03-25T18:03:11.790Z,90.40
2018-03-25T18:05:40.634Z,91.30
2018-03-25T18:08:09.525Z,89.70
2018-03-25T18:10:38.289Z,90.40
2018-03-25T18:13:07.232Z,90.90
2018-03-25T18:15:35.966Z,91.40
2018-03-25T18:18:04.345Z,90.20
2018-03-25T18:20:33.305Z,91.20
2018-03-25T18:23:01.837Z,90.60
2018-03-25T18:25:31.325Z,91.20
2018-03-25T18:28:00.095Z,91.20
2018-03-25T18:30:28.897Z,91.10
2018-03-25T18:32:57.742Z,91.10
2018-03-25T19:58:37.978Z,91.80
2018-03-25T20:01:07.829Z,91.90
2018-03-25T20:03:36.682Z,92.00
2018-03-25T20:06:06.189Z,92.10
2018-03-25T20:08:36.022Z,92.70
2018-03-25T20:11:04.837Z,92.70
2018-03-25T20:13:33.841Z,92.80
2018-03-25T20:16:02.700Z,92.30
2018-03-25T20:18:31.405Z,92.60
2018-03-25T20:21:00.070Z,91.80
2018-03-25T20:23:29.026Z,91.70
2018-03-25T20:25:57.592Z,92.70
2018-03-25T20:28:26.298Z,91.80
2018-03-25T20:30:55.480Z,91.70
2018-03-25T20:33:24.479Z,91.70
2018-03-25T20:35:53.936Z,91.60
2018-03-25T20:38:22.608Z,91.50
2018-03-25T20:40:52.081Z,92.70
2018-03-25T20:43:20.768Z,92.70
2018-03-25T20:45:49.505Z,92.60
2018-03-25T20:48:18.241Z,92.70
2018-03-25T20:50:47.275Z,92.50
2018-03-25T20:53:17.584Z,92.60
2018-03-25T20:55:46.738Z,92.60
2018-03-25T20:58:15.518Z,93.60
2018-03-25T21:00:44.375Z,92.90
2018-03-25T21:03:13.959Z,92.40
2018-03-25T21:05:42.966Z,92.40
2018-03-25T21:08:11.729Z,92.00
2018-03-25T21:10:42.009Z,92.00
2018-03-25T21:13:10.680Z,91.80
2018-03-25T21:15:40.136Z,92.10
2018-03-25T21:18:08.841Z,92.10
2018-03-25T21:20:37.545Z,91.80
2018-03-25T21:23:06.194Z,92.30
2018-03-25T21:25:34.908Z,92.10
2018-03-25T21:28:03.602Z,92.20
2018-03-25T21:30:32.276Z,92.70
2018-03-25T21:33:00.960Z,92.50
2018-03-25T21:35:29.656Z,92.70
2018-03-25T21:37:58.329Z,92.90
2018-03-25T21:40:27.041Z,92.40
2018-03-25T21:42:56.522Z,92.60
2018-03-25T21:45:25.214Z,92.50
2018-03-25T21:47:53.906Z,93.00
2018-03-25T21:50:22.537Z,93.30
2018-03-25T22:03:07.336Z,92.80
2018-03-25T22:05:37.606Z,92.50
2018-03-25T22:08:08.215Z,93.00
2018-03-25T22:10:37.414Z,92.80
2018-03-25T22:13:09.863Z,93.10
2018-03-25T22:15:39.606Z,92.50
2018-03-25T22:18:08.118Z,92.50
2018-03-25T22:35:56.586Z,92.40
2018-03-25T22:40:58.782Z,92.80
2018-03-25T23:32:17.088Z,92.70
2018-03-25T23:34:45.801Z,93.00
2018-03-25T23:37:16.355Z,93.20
2018-03-25T23:39:46.440Z,93.20
2018-03-25T23:44:49.998Z,94.30
2018-03-25T23:52:27.423Z,93.90
2018-03-25T23:54:57.547Z,93.80
